Atair — DBBI — position and weather

sailwx.info

Track history (hours):
 
Tides and Currents Weather Stations Pressure Air Temp Water Temp Dewpoint Dewpoint Depression Visibility Wind Speed Wind Dir Waves Ship Positions

Oceanographic research ship Atair (Germany)

Detailed information on ship capabilities available from University of Delaware's Ocean Information Center.

Last reported at 2019-Mar-28 06:13 UTC. Time now 2019-Apr-18 20:20 UTC.
Position N 53°20' E 008°29'.
Warning: this ship's position is 21 days out of date.

Length 51.4 m; beam 11.4 m; draft 3.5 m.

MMSI: 211223296.

Date/timePositionNaut miles runAvg speedWind from/ knotsBaromVisibWave heightAir tempDewpointWater temp
2019-Mar-28 06:13N 53°20' E 008°29'0 0.6
2019-Mar-28 05:51N 53°20' E 008°29'3 6.9
2019-Mar-28 05:29N 53°22' E 008°30'4 8.2
2019-Mar-28 05:00N 53°26' E 008°29'2 4.2
2019-Mar-28 04:29N 53°28' E 008°29'0 0.0
2019-Mar-28 04:00N 53°28' E 008°29'0 0.0
2019-Mar-28 03:30N 53°28' E 008°29'0 0.0
2019-Mar-28 03:00N 53°28' E 008°29'0 0.0
2019-Mar-28 02:30N 53°28' E 008°29'0 0.0
2019-Mar-28 02:00N 53°28' E 008°29'0 0.0
2019-Mar-28 01:30N 53°28' E 008°29'0 0.0
2019-Mar-28 01:00N 53°28' E 008°29'0 0.0
2019-Mar-28 00:30N 53°28' E 008°29'0 0.0
2019-Mar-28 00:00N 53°28' E 008°29'0 0.0
2019-Mar-27 23:30N 53°28' E 008°29'0 0.0
2019-Mar-27 23:00N 53°28' E 008°29'0 0.0
2019-Mar-27 22:30N 53°28' E 008°29'0 0.0
2019-Mar-27 22:00N 53°28' E 008°29'0 0.0
2019-Mar-27 21:30N 53°28' E 008°29'0 0.0
2019-Mar-27 21:00N 53°28' E 008°29'0 0.0
2019-Mar-27 20:30N 53°28' E 008°29'0 0.0
2019-Mar-27 20:01N 53°28' E 008°29'0 0.0
2019-Mar-27 19:31N 53°28' E 008°29'0 0.0
2019-Mar-27 19:00N 53°28' E 008°29'0 0.0
2019-Mar-27 18:30N 53°28' E 008°29'0 0.0
2019-Mar-27 18:00N 53°28' E 008°29'0 0.0
2019-Mar-27 17:30N 53°28' E 008°29'0 0.0
2019-Mar-27 17:00N 53°28' E 008°29'0 0.0
2019-Mar-27 16:30N 53°28' E 008°29'0 0.1
2019-Mar-27 16:00N 53°28' E 008°29'4 8.7
2019-Mar-27 15:31N 53°32' E 008°34'0 0.9
2019-Mar-27 15:01N 53°32' E 008°35'0 0.3
2019-Mar-27 14:27N 53°31' E 008°35'0 0.0
2019-Mar-27 14:00N 53°31' E 008°35'0 0.0
2019-Mar-27 13:30N 53°31' E 008°35'0 0.0
2019-Mar-27 12:59N 53°31' E 008°35'0 0.0
2019-Mar-27 12:29N 53°31' E 008°35'0 0.0
2019-Mar-27 11:59N 53°31' E 008°35'0 0.0
2019-Mar-27 11:29N 53°31' E 008°35'0 0.0
2019-Mar-27 10:58N 53°31' E 008°35'0 0.0
2019-Mar-27 10:28N 53°31' E 008°35'0 0.0
2019-Mar-27 09:58N 53°31' E 008°35'0 0.0
2019-Mar-27 09:28N 53°31' E 008°35'0 0.0
2019-Mar-27 08:58N 53°31' E 008°35'0 0.0
2019-Mar-27 08:30N 53°31' E 008°35'0 0.0
2019-Mar-27 08:00N 53°31' E 008°35'0 0.0
2019-Mar-27 07:30N 53°31' E 008°35'0 0.0
2019-Mar-27 07:00N 53°31' E 008°35'0 0.0
2019-Mar-27 06:30N 53°31' E 008°35'0 0.0
2019-Mar-27 05:59N 53°31' E 008°35'0 0.0
2019-Mar-27 05:29N 53°31' E 008°35'0 0.0
2019-Mar-27 04:59N 53°31' E 008°35'0 0.0
2019-Mar-27 04:29N 53°31' E 008°35'0 0.0
2019-Mar-27 03:58N 53°31' E 008°35'0 0.0
2019-Mar-27 03:28N 53°31' E 008°35'0 0.0
2019-Mar-27 02:55N 53°31' E 008°35'0 0.0
2019-Mar-27 02:30N 53°31' E 008°35'0 0.0
2019-Mar-27 01:58N 53°31' E 008°35'0 0.0
2019-Mar-27 01:30N 53°31' E 008°35'0 0.0
2019-Mar-27 01:00N 53°31' E 008°35'0 0.0
2019-Mar-27 00:30N 53°31' E 008°35'0 0.0
2019-Mar-27 00:00N 53°31' E 008°35'0 0.0
2019-Mar-26 23:27N 53°31' E 008°35'0 0.0
2019-Mar-26 22:59N 53°31' E 008°35'0 0.0
2019-Mar-26 22:29N 53°31' E 008°35'0 0.0
2019-Mar-26 21:59N 53°31' E 008°35'0 0.0
2019-Mar-26 21:29N 53°31' E 008°35'0 0.0
2019-Mar-26 20:58N 53°31' E 008°35'0 0.0
2019-Mar-26 20:28N 53°31' E 008°35'0 0.0
2019-Mar-26 19:58N 53°31' E 008°35'0 0.0
2019-Mar-26 19:28N 53°31' E 008°35'0 0.0
2019-Mar-26 18:58N 53°31' E 008°35'0 0.0
2019-Mar-26 18:30N 53°31' E 008°35'0 0.0
2019-Mar-26 18:00N 53°31' E 008°35'0 0.0
2019-Mar-26 17:30N 53°31' E 008°35'0 0.0
2019-Mar-26 17:00N 53°31' E 008°35'0 0.0
2019-Mar-26 16:30N 53°31' E 008°35'0 0.0
2019-Mar-26 15:59N 53°31' E 008°35'0 0.0
2019-Mar-26 15:29N 53°31' E 008°35'0 0.0
2019-Mar-26 14:59N 53°31' E 008°35'0 0.0
2019-Mar-26 14:29N 53°31' E 008°35'0 0.0
2019-Mar-26 13:58N 53°31' E 008°35'0 0.0
2019-Mar-26 13:28N 53°31' E 008°35'0 0.0
2019-Mar-26 12:58N 53°31' E 008°35'0 0.6
2019-Mar-26 12:31N 53°32' E 008°35'0 0.7
2019-Mar-26 12:00N 53°32' E 008°35'2 3.0
2019-Mar-26 11:30N 53°33' E 008°33'4 7.7
2019-Mar-26 11:00N 53°36' E 008°30'610.4
2019-Mar-26 10:25N 53°41' E 008°22'610.4
2019-Mar-26 09:51N 53°44' E 008°14'10 6.2
2019-Mar-26 08:11N 53°49' E 007°58'310.3
2019-Mar-26 07:55N 53°47' E 008°02'2 0.6
2019-Mar-26 04:04N 53°45' E 008°02'0 0.2
2019-Mar-26 03:58N 53°45' E 008°02'0 0.0
2019-Mar-26 03:27N 53°45' E 008°02'0 0.0
2019-Mar-26 02:57N 53°45' E 008°02'0 0.0
2019-Mar-25 22:16N 53°45' E 008°02'0 0.0
2019-Mar-25 15:49N 53°45' E 008°02'0 0.0
2019-Mar-25 09:38N 53°45' E 008°02'0 0.0
2019-Mar-25 09:17N 53°45' E 008°02'0 0.0
2019-Mar-25 08:04N 53°45' E 008°02'0 0.0
2019-Mar-25 04:08N 53°45' E 008°02'0 0.1
2019-Mar-25 03:47N 53°45' E 008°02'0 0.1
2019-Mar-25 03:17N 53°45' E 008°03'0 0.0
2019-Mar-25 02:14N 53°45' E 008°02'0 0.1
2019-Mar-25 01:13N 53°45' E 008°02'0 0.0
2019-Mar-25 00:31N 53°45' E 008°02'0 0.0
2019-Mar-25 00:25N 53°45' E 008°02'0 0.0
2019-Mar-24 20:20N 53°45' E 008°03'  
2019-Mar-20 09:44N 53°48' E 008°09'3 9.2
2019-Mar-20 09:25N 53°46' E 008°12'4 8.5
2019-Mar-20 09:01N 53°44' E 008°16'4 8.5
2019-Mar-20 08:30N 53°41' E 008°22'4 7.5
2019-Mar-20 08:00N 53°38' E 008°26'4 8.7
2019-Mar-20 07:31N 53°35' E 008°31'4 7.5
2019-Mar-20 07:00N 53°32' E 008°35'1 1.1
2019-Mar-20 06:30N 53°31' E 008°35'0 0.1
2019-Mar-20 05:59N 53°31' E 008°35'0 0.0
2019-Mar-20 05:29N 53°31' E 008°35'0 0.0
2019-Mar-20 04:58N 53°31' E 008°35'0 0.0
2019-Mar-20 04:28N 53°31' E 008°35'0 0.0
2019-Mar-20 03:58N 53°31' E 008°35'0 0.0
2019-Mar-20 03:28N 53°31' E 008°35'0 0.0
2019-Mar-20 02:58N 53°31' E 008°35'0 0.0
2019-Mar-20 02:30N 53°31' E 008°35'0 0.0
2019-Mar-20 02:00N 53°31' E 008°35'0 0.0
2019-Mar-20 01:30N 53°31' E 008°35'0 0.0
2019-Mar-20 01:00N 53°31' E 008°35'0 0.0
2019-Mar-20 00:29N 53°31' E 008°35'0 0.0
2019-Mar-19 23:56N 53°31' E 008°35'0 0.0
2019-Mar-19 23:29N 53°31' E 008°35'0 0.0
2019-Mar-19 22:59N 53°31' E 008°35'0 0.0
2019-Mar-19 22:29N 53°31' E 008°35'0 0.0
2019-Mar-19 21:58N 53°31' E 008°35'0 0.0
2019-Mar-19 21:28N 53°31' E 008°35'0 0.0
2019-Mar-19 20:58N 53°31' E 008°35'0 0.0
2019-Mar-19 20:28N 53°31' E 008°35'0 0.0
2019-Mar-19 19:58N 53°31' E 008°35'0 0.0
2019-Mar-19 19:30N 53°31' E 008°35'0 0.0
2019-Mar-19 19:00N 53°31' E 008°35'0 0.0
2019-Mar-19 18:30N 53°31' E 008°35'0 0.0
2019-Mar-19 18:00N 53°31' E 008°35'0 0.0
2019-Mar-19 17:29N 53°31' E 008°35'0 0.0
2019-Mar-19 16:59N 53°31' E 008°35'0 0.0
2019-Mar-19 16:29N 53°31' E 008°35'0 0.0
2019-Mar-19 15:59N 53°31' E 008°35'0 0.0
2019-Mar-19 15:29N 53°31' E 008°35'0 0.0
2019-Mar-19 14:58N 53°31' E 008°35'0 0.0
2019-Mar-19 14:25N 53°31' E 008°35'0 0.0
2019-Mar-19 13:58N 53°31' E 008°35'0 0.0
2019-Mar-19 13:28N 53°31' E 008°35'0 0.0
2019-Mar-19 12:58N 53°31' E 008°35'0 0.0
2019-Mar-19 12:30N 53°31' E 008°35'0 0.0
2019-Mar-19 12:00N 53°31' E 008°35'0 0.0
2019-Mar-19 11:30N 53°31' E 008°35'0 0.0
2019-Mar-19 11:00N 53°31' E 008°35'0 0.0
2019-Mar-19 10:30N 53°31' E 008°35'0 0.0
2019-Mar-19 09:59N 53°31' E 008°35'0 0.0
2019-Mar-19 09:29N 53°31' E 008°35'0 0.0
2019-Mar-19 08:59N 53°31' E 008°35'0 0.0
2019-Mar-19 08:29N 53°31' E 008°35'0 0.0
2019-Mar-19 07:58N 53°31' E 008°35'0 0.0
2019-Mar-19 07:25N 53°31' E 008°35'0 0.0
2019-Mar-19 06:55N 53°31' E 008°35'0 0.0
2019-Mar-19 06:28N 53°31' E 008°35'0 0.0
2019-Mar-19 06:01N 53°31' E 008°35'0 0.0
2019-Mar-19 05:30N 53°31' E 008°35'0 0.0
2019-Mar-19 05:00N 53°31' E 008°35'0 0.0
2019-Mar-19 04:30N 53°31' E 008°35'0 0.0
2019-Mar-19 04:00N 53°31' E 008°35'0 0.0
2019-Mar-19 03:29N 53°31' E 008°35'0 0.0
2019-Mar-19 02:59N 53°31' E 008°35'0 0.0
2019-Mar-19 02:29N 53°31' E 008°35'0 0.0
2019-Mar-19 01:59N 53°31' E 008°35'0 0.0
2019-Mar-19 01:29N 53°31' E 008°35'0 0.0
2019-Mar-19 00:58N 53°31' E 008°35'0 0.0
2019-Mar-19 00:28N 53°31' E 008°35'0 0.0
2019-Mar-18 23:58N 53°31' E 008°35'0 0.0
2019-Mar-18 23:28N 53°31' E 008°35'0 0.0
2019-Mar-18 23:01N 53°31' E 008°35'0 0.0
2019-Mar-18 22:30N 53°31' E 008°35'0 0.0
2019-Mar-18 21:57N 53°31' E 008°35'0 0.0
2019-Mar-18 21:30N 53°31' E 008°35'0 0.0
2019-Mar-18 21:00N 53°31' E 008°35'0 0.0
2019-Mar-18 20:29N 53°31' E 008°35'0 0.0
2019-Mar-18 19:59N 53°31' E 008°35'0 0.0
2019-Mar-18 19:29N 53°31' E 008°35'0 0.0
2019-Mar-18 18:59N 53°31' E 008°35'0 0.0
2019-Mar-18 18:29N 53°31' E 008°35'0 0.0
2019-Mar-18 17:58N 53°31' E 008°35'0 0.0
2019-Mar-18 17:28N 53°31' E 008°35'0 0.0
2019-Mar-18 16:58N 53°31' E 008°35'0 0.0
2019-Mar-18 16:25N 53°31' E 008°35'0 0.0
2019-Mar-18 15:57N 53°31' E 008°35'0 0.0
2019-Mar-18 15:30N 53°31' E 008°35'0 0.0
2019-Mar-18 15:00N 53°31' E 008°35'0 0.0
2019-Mar-18 14:30N 53°31' E 008°35'0 0.0
2019-Mar-18 14:00N 53°31' E 008°35'0 0.0
2019-Mar-18 13:26N 53°31' E 008°35'0 0.0
2019-Mar-18 12:59N 53°31' E 008°35'0 0.0
2019-Mar-18 12:29N 53°31' E 008°35'0 0.0
2019-Mar-18 11:59N 53°31' E 008°35'0 0.0
2019-Mar-18 11:29N 53°31' E 008°35'0 0.0
2019-Mar-18 10:58N 53°31' E 008°35'0 0.0
2019-Mar-18 10:28N 53°31' E 008°35'0 0.0
2019-Mar-18 09:58N 53°31' E 008°35'0 0.0
2019-Mar-18 09:28N 53°31' E 008°35'0 0.0
2019-Mar-18 09:00N 53°31' E 008°35'0 0.0
2019-Mar-18 08:30N 53°31' E 008°35'0 0.0
2019-Mar-18 07:57N 53°31' E 008°35'0 0.0
2019-Mar-18 07:30N 53°31' E 008°35'0 0.0
2019-Mar-18 07:00N 53°31' E 008°35'0 0.0
2019-Mar-18 06:29N 53°31' E 008°35'  
Track history (hours):
 
Tides and Currents Weather Stations Pressure Air Temp Water Temp Dewpoint Dewpoint Depression Visibility Wind Speed Wind Dir Waves Ship Positions

Oceanographic research ship Atair (Germany)

Detailed information on ship capabilities available from University of Delaware's Ocean Information Center.

Last reported at 2019-Mar-28 06:13 UTC. Time now 2019-Apr-18 20:20 UTC.
Position N 53°20' E 008°29'.
Warning: this ship's position is 21 days out of date.

Length 51.4 m; beam 11.4 m; draft 3.5 m.

MMSI: 211223296.

Date/timePositionNaut miles runAvg speedWind from/ knotsBaromVisibWave heightAir tempDewpointWater temp
2019-Mar-28 06:13N 53°20' E 008°29'0 0.6
2019-Mar-28 05:51N 53°20' E 008°29'3 6.9
2019-Mar-28 05:29N 53°22' E 008°30'4 8.2
2019-Mar-28 05:00N 53°26' E 008°29'2 4.2
2019-Mar-28 04:29N 53°28' E 008°29'0 0.0
2019-Mar-28 04:00N 53°28' E 008°29'0 0.0
2019-Mar-28 03:30N 53°28' E 008°29'0 0.0
2019-Mar-28 03:00N 53°28' E 008°29'0 0.0
2019-Mar-28 02:30N 53°28' E 008°29'0 0.0
2019-Mar-28 02:00N 53°28' E 008°29'0 0.0
2019-Mar-28 01:30N 53°28' E 008°29'0 0.0
2019-Mar-28 01:00N 53°28' E 008°29'0 0.0
2019-Mar-28 00:30N 53°28' E 008°29'0 0.0
2019-Mar-28 00:00N 53°28' E 008°29'0 0.0
2019-Mar-27 23:30N 53°28' E 008°29'0 0.0
2019-Mar-27 23:00N 53°28' E 008°29'0 0.0
2019-Mar-27 22:30N 53°28' E 008°29'0 0.0
2019-Mar-27 22:00N 53°28' E 008°29'0 0.0
2019-Mar-27 21:30N 53°28' E 008°29'0 0.0
2019-Mar-27 21:00N 53°28' E 008°29'0 0.0
2019-Mar-27 20:30N 53°28' E 008°29'0 0.0
2019-Mar-27 20:01N 53°28' E 008°29'0 0.0
2019-Mar-27 19:31N 53°28' E 008°29'0 0.0
2019-Mar-27 19:00N 53°28' E 008°29'0 0.0
2019-Mar-27 18:30N 53°28' E 008°29'0 0.0
2019-Mar-27 18:00N 53°28' E 008°29'0 0.0
2019-Mar-27 17:30N 53°28' E 008°29'0 0.0
2019-Mar-27 17:00N 53°28' E 008°29'0 0.0
2019-Mar-27 16:30N 53°28' E 008°29'0 0.1
2019-Mar-27 16:00N 53°28' E 008°29'4 8.7
2019-Mar-27 15:31N 53°32' E 008°34'0 0.9
2019-Mar-27 15:01N 53°32' E 008°35'0 0.3
2019-Mar-27 14:27N 53°31' E 008°35'0 0.0
2019-Mar-27 14:00N 53°31' E 008°35'0 0.0
2019-Mar-27 13:30N 53°31' E 008°35'0 0.0
2019-Mar-27 12:59N 53°31' E 008°35'0 0.0
2019-Mar-27 12:29N 53°31' E 008°35'0 0.0
2019-Mar-27 11:59N 53°31' E 008°35'0 0.0
2019-Mar-27 11:29N 53°31' E 008°35'0 0.0
2019-Mar-27 10:58N 53°31' E 008°35'0 0.0
2019-Mar-27 10:28N 53°31' E 008°35'0 0.0
2019-Mar-27 09:58N 53°31' E 008°35'0 0.0
2019-Mar-27 09:28N 53°31' E 008°35'0 0.0
2019-Mar-27 08:58N 53°31' E 008°35'0 0.0
2019-Mar-27 08:30N 53°31' E 008°35'0 0.0
2019-Mar-27 08:00N 53°31' E 008°35'0 0.0
2019-Mar-27 07:30N 53°31' E 008°35'0 0.0
2019-Mar-27 07:00N 53°31' E 008°35'0 0.0
2019-Mar-27 06:30N 53°31' E 008°35'0 0.0
2019-Mar-27 05:59N 53°31' E 008°35'0 0.0
2019-Mar-27 05:29N 53°31' E 008°35'0 0.0
2019-Mar-27 04:59N 53°31' E 008°35'0 0.0
2019-Mar-27 04:29N 53°31' E 008°35'0 0.0
2019-Mar-27 03:58N 53°31' E 008°35'0 0.0
2019-Mar-27 03:28N 53°31' E 008°35'0 0.0
2019-Mar-27 02:55N 53°31' E 008°35'0 0.0
2019-Mar-27 02:30N 53°31' E 008°35'0 0.0
2019-Mar-27 01:58N 53°31' E 008°35'0 0.0
2019-Mar-27 01:30N 53°31' E 008°35'0 0.0
2019-Mar-27 01:00N 53°31' E 008°35'0 0.0
2019-Mar-27 00:30N 53°31' E 008°35'0 0.0
2019-Mar-27 00:00N 53°31' E 008°35'0 0.0
2019-Mar-26 23:27N 53°31' E 008°35'0 0.0
2019-Mar-26 22:59N 53°31' E 008°35'0 0.0
2019-Mar-26 22:29N 53°31' E 008°35'0 0.0
2019-Mar-26 21:59N 53°31' E 008°35'0 0.0
2019-Mar-26 21:29N 53°31' E 008°35'0 0.0
2019-Mar-26 20:58N 53°31' E 008°35'0 0.0
2019-Mar-26 20:28N 53°31' E 008°35'0 0.0
2019-Mar-26 19:58N 53°31' E 008°35'0 0.0
2019-Mar-26 19:28N 53°31' E 008°35'0 0.0
2019-Mar-26 18:58N 53°31' E 008°35'0 0.0
2019-Mar-26 18:30N 53°31' E 008°35'0 0.0
2019-Mar-26 18:00N 53°31' E 008°35'0 0.0
2019-Mar-26 17:30N 53°31' E 008°35'0 0.0
2019-Mar-26 17:00N 53°31' E 008°35'0 0.0
2019-Mar-26 16:30N 53°31' E 008°35'0 0.0
2019-Mar-26 15:59N 53°31' E 008°35'0 0.0
2019-Mar-26 15:29N 53°31' E 008°35'0 0.0
2019-Mar-26 14:59N 53°31' E 008°35'0 0.0
2019-Mar-26 14:29N 53°31' E 008°35'0 0.0
2019-Mar-26 13:58N 53°31' E 008°35'0 0.0
2019-Mar-26 13:28N 53°31' E 008°35'0 0.0
2019-Mar-26 12:58N 53°31' E 008°35'0 0.6
2019-Mar-26 12:31N 53°32' E 008°35'0 0.7
2019-Mar-26 12:00N 53°32' E 008°35'2 3.0
2019-Mar-26 11:30N 53°33' E 008°33'4 7.7
2019-Mar-26 11:00N 53°36' E 008°30'610.4
2019-Mar-26 10:25N 53°41' E 008°22'610.4
2019-Mar-26 09:51N 53°44' E 008°14'10 6.2
2019-Mar-26 08:11N 53°49' E 007°58'310.3
2019-Mar-26 07:55N 53°47' E 008°02'2 0.6
2019-Mar-26 04:04N 53°45' E 008°02'0 0.2
2019-Mar-26 03:58N 53°45' E 008°02'0 0.0
2019-Mar-26 03:27N 53°45' E 008°02'0 0.0
2019-Mar-26 02:57N 53°45' E 008°02'0 0.0
2019-Mar-25 22:16N 53°45' E 008°02'0 0.0
2019-Mar-25 15:49N 53°45' E 008°02'0 0.0
2019-Mar-25 09:38N 53°45' E 008°02'0 0.0
2019-Mar-25 09:17N 53°45' E 008°02'0 0.0
2019-Mar-25 08:04N 53°45' E 008°02'0 0.0
2019-Mar-25 04:08N 53°45' E 008°02'0 0.1
2019-Mar-25 03:47N 53°45' E 008°02'0 0.1
2019-Mar-25 03:17N 53°45' E 008°03'0 0.0
2019-Mar-25 02:14N 53°45' E 008°02'0 0.1
2019-Mar-25 01:13N 53°45' E 008°02'0 0.0
2019-Mar-25 00:31N 53°45' E 008°02'0 0.0
2019-Mar-25 00:25N 53°45' E 008°02'0 0.0
2019-Mar-24 20:20N 53°45' E 008°03'  
2019-Mar-20 09:44N 53°48' E 008°09'3 9.2
2019-Mar-20 09:25N 53°46' E 008°12'4 8.5
2019-Mar-20 09:01N 53°44' E 008°16'4 8.5
2019-Mar-20 08:30N 53°41' E 008°22'4 7.5
2019-Mar-20 08:00N 53°38' E 008°26'4 8.7
2019-Mar-20 07:31N 53°35' E 008°31'4 7.5
2019-Mar-20 07:00N 53°32' E 008°35'1 1.1
2019-Mar-20 06:30N 53°31' E 008°35'0 0.1
2019-Mar-20 05:59N 53°31' E 008°35'0 0.0
2019-Mar-20 05:29N 53°31' E 008°35'0 0.0
2019-Mar-20 04:58N 53°31' E 008°35'0 0.0
2019-Mar-20 04:28N 53°31' E 008°35'0 0.0
2019-Mar-20 03:58N 53°31' E 008°35'0 0.0
2019-Mar-20 03:28N 53°31' E 008°35'0 0.0
2019-Mar-20 02:58N 53°31' E 008°35'0 0.0
2019-Mar-20 02:30N 53°31' E 008°35'0 0.0
2019-Mar-20 02:00N 53°31' E 008°35'0 0.0
2019-Mar-20 01:30N 53°31' E 008°35'0 0.0
2019-Mar-20 01:00N 53°31' E 008°35'0 0.0
2019-Mar-20 00:29N 53°31' E 008°35'0 0.0
2019-Mar-19 23:56N 53°31' E 008°35'0 0.0
2019-Mar-19 23:29N 53°31' E 008°35'0 0.0
2019-Mar-19 22:59N 53°31' E 008°35'0 0.0
2019-Mar-19 22:29N 53°31' E 008°35'0 0.0
2019-Mar-19 21:58N 53°31' E 008°35'0 0.0
2019-Mar-19 21:28N 53°31' E 008°35'0 0.0
2019-Mar-19 20:58N 53°31' E 008°35'0 0.0
2019-Mar-19 20:28N 53°31' E 008°35'0 0.0
2019-Mar-19 19:58N 53°31' E 008°35'0 0.0
2019-Mar-19 19:30N 53°31' E 008°35'0 0.0
2019-Mar-19 19:00N 53°31' E 008°35'0 0.0
2019-Mar-19 18:30N 53°31' E 008°35'0 0.0
2019-Mar-19 18:00N 53°31' E 008°35'0 0.0
2019-Mar-19 17:29N 53°31' E 008°35'0 0.0
2019-Mar-19 16:59N 53°31' E 008°35'0 0.0
2019-Mar-19 16:29N 53°31' E 008°35'0 0.0
2019-Mar-19 15:59N 53°31' E 008°35'0 0.0
2019-Mar-19 15:29N 53°31' E 008°35'0 0.0
2019-Mar-19 14:58N 53°31' E 008°35'0 0.0
2019-Mar-19 14:25N 53°31' E 008°35'0 0.0
2019-Mar-19 13:58N 53°31' E 008°35'0 0.0
2019-Mar-19 13:28N 53°31' E 008°35'0 0.0
2019-Mar-19 12:58N 53°31' E 008°35'0 0.0
2019-Mar-19 12:30N 53°31' E 008°35'0 0.0
2019-Mar-19 12:00N 53°31' E 008°35'0 0.0
2019-Mar-19 11:30N 53°31' E 008°35'0 0.0
2019-Mar-19 11:00N 53°31' E 008°35'0 0.0
2019-Mar-19 10:30N 53°31' E 008°35'0 0.0
2019-Mar-19 09:59N 53°31' E 008°35'0 0.0
2019-Mar-19 09:29N 53°31' E 008°35'0 0.0
2019-Mar-19 08:59N 53°31' E 008°35'0 0.0
2019-Mar-19 08:29N 53°31' E 008°35'0 0.0
2019-Mar-19 07:58N 53°31' E 008°35'0 0.0
2019-Mar-19 07:25N 53°31' E 008°35'0 0.0
2019-Mar-19 06:55N 53°31' E 008°35'0 0.0
2019-Mar-19 06:28N 53°31' E 008°35'0 0.0
2019-Mar-19 06:01N 53°31' E 008°35'0 0.0
2019-Mar-19 05:30N 53°31' E 008°35'0 0.0
2019-Mar-19 05:00N 53°31' E 008°35'0 0.0
2019-Mar-19 04:30N 53°31' E 008°35'0 0.0
2019-Mar-19 04:00N 53°31' E 008°35'0 0.0
2019-Mar-19 03:29N 53°31' E 008°35'0 0.0
2019-Mar-19 02:59N 53°31' E 008°35'0 0.0
2019-Mar-19 02:29N 53°31' E 008°35'0 0.0
2019-Mar-19 01:59N 53°31' E 008°35'0 0.0
2019-Mar-19 01:29N 53°31' E 008°35'0 0.0
2019-Mar-19 00:58N 53°31' E 008°35'0 0.0
2019-Mar-19 00:28N 53°31' E 008°35'0 0.0
2019-Mar-18 23:58N 53°31' E 008°35'0 0.0
2019-Mar-18 23:28N 53°31' E 008°35'0 0.0
2019-Mar-18 23:01N 53°31' E 008°35'0 0.0
2019-Mar-18 22:30N 53°31' E 008°35'0 0.0
2019-Mar-18 21:57N 53°31' E 008°35'0 0.0
2019-Mar-18 21:30N 53°31' E 008°35'0 0.0
2019-Mar-18 21:00N 53°31' E 008°35'0 0.0
2019-Mar-18 20:29N 53°31' E 008°35'0 0.0
2019-Mar-18 19:59N 53°31' E 008°35'0 0.0
2019-Mar-18 19:29N 53°31' E 008°35'0 0.0
2019-Mar-18 18:59N 53°31' E 008°35'0 0.0
2019-Mar-18 18:29N 53°31' E 008°35'0 0.0
2019-Mar-18 17:58N 53°31' E 008°35'0 0.0
2019-Mar-18 17:28N 53°31' E 008°35'0 0.0
2019-Mar-18 16:58N 53°31' E 008°35'0 0.0
2019-Mar-18 16:25N 53°31' E 008°35'0 0.0
2019-Mar-18 15:57N 53°31' E 008°35'0 0.0
2019-Mar-18 15:30N 53°31' E 008°35'0 0.0
2019-Mar-18 15:00N 53°31' E 008°35'0 0.0
2019-Mar-18 14:30N 53°31' E 008°35'0 0.0
2019-Mar-18 14:00N 53°31' E 008°35'0 0.0
2019-Mar-18 13:26N 53°31' E 008°35'0 0.0
2019-Mar-18 12:59N 53°31' E 008°35'0 0.0
2019-Mar-18 12:29N 53°31' E 008°35'0 0.0
2019-Mar-18 11:59N 53°31' E 008°35'0 0.0
2019-Mar-18 11:29N 53°31' E 008°35'0 0.0
2019-Mar-18 10:58N 53°31' E 008°35'0 0.0
2019-Mar-18 10:28N 53°31' E 008°35'0 0.0
2019-Mar-18 09:58N 53°31' E 008°35'0 0.0
2019-Mar-18 09:28N 53°31' E 008°35'0 0.0
2019-Mar-18 09:00N 53°31' E 008°35'0 0.0
2019-Mar-18 08:30N 53°31' E 008°35'0 0.0
2019-Mar-18 07:57N 53°31' E 008°35'0 0.0
2019-Mar-18 07:30N 53°31' E 008°35'0 0.0
2019-Mar-18 07:00N 53°31' E 008°35'0 0.0
2019-Mar-18 06:29N 53°31' E 008°35'  

Dump ship's entire track history